createdAt,value
2023-08-03T00:01:01.525Z,100.00
2023-08-03T00:03:29.529Z,100.00
2023-08-03T00:05:57.393Z,100.00
2023-08-03T00:08:25.158Z,100.00
2023-08-03T00:10:52.910Z,100.00
2023-08-03T00:13:20.668Z,100.00
2023-08-03T00:15:48.510Z,100.00
2023-08-03T00:18:17.622Z,100.00
2023-08-03T00:20:47.849Z,100.00
2023-08-03T00:23:15.631Z,100.00
2023-08-03T00:25:43.393Z,100.00
2023-08-03T00:28:11.280Z,100.00
2023-08-03T00:30:39.048Z,100.00
2023-08-03T00:33:06.836Z,100.00
2023-08-03T00:35:36.024Z,100.00
2023-08-03T00:38:03.791Z,100.00
2023-08-03T00:40:31.715Z,100.00
2023-08-03T00:42:59.945Z,100.00
2023-08-03T00:45:27.798Z,100.00
2023-08-03T00:47:55.616Z,100.00
2023-08-03T00:50:23.927Z,100.00
2023-08-03T00:52:53.028Z,100.00
2023-08-03T00:55:20.811Z,100.00
2023-08-03T00:57:48.639Z,100.00
2023-08-03T01:00:16.756Z,100.00
2023-08-03T01:03:12.890Z,100.00
2023-08-03T01:05:41.575Z,100.00
2023-08-03T01:09:01.902Z,100.00
2023-08-03T01:11:55.346Z,100.00
2023-08-03T01:14:28.991Z,100.00
2023-08-03T01:16:57.011Z,100.00
2023-08-03T01:19:25.569Z,100.00
2023-08-03T01:21:53.954Z,100.00
2023-08-03T01:27:52.546Z,100.00
2023-08-03T01:30:38.005Z,100.00
2023-08-03T01:33:09.370Z,100.00
2023-08-03T01:35:40.430Z,100.00
2023-08-03T01:38:11.421Z,100.00
2023-08-03T01:40:40.706Z,100.00
2023-08-03T01:43:34.238Z,100.00
2023-08-03T01:46:06.346Z,100.00
2023-08-03T01:48:34.196Z,100.00
2023-08-03T01:51:02.163Z,100.00
2023-08-03T01:53:30.375Z,100.00
2023-08-03T01:55:59.485Z,100.00
2023-08-03T01:58:27.168Z,100.00
2023-08-03T02:00:54.795Z,100.00
2023-08-03T02:03:22.468Z,100.00
2023-08-03T02:05:50.220Z,100.00
2023-08-03T02:08:17.997Z,100.00
2023-08-03T02:10:45.822Z,100.00
2023-08-03T02:13:14.855Z,100.00
2023-08-03T02:15:42.621Z,100.00
2023-08-03T02:18:10.326Z,100.00
2023-08-03T02:20:38.036Z,100.00
2023-08-03T02:23:05.997Z,100.00
2023-08-03T02:25:33.660Z,100.00
2023-08-03T02:28:01.694Z,100.00
2023-08-03T02:30:32.043Z,100.00
2023-08-03T02:33:00.017Z,100.00
2023-08-03T02:35:28.205Z,100.00
2023-08-03T02:37:56.584Z,100.00
2023-08-03T02:40:24.867Z,100.00
2023-08-03T02:42:52.678Z,100.00
2023-08-03T02:45:21.055Z,100.00
2023-08-03T02:47:51.123Z,100.00
2023-08-03T02:50:22.015Z,100.00
2023-08-03T02:52:52.998Z,100.00
2023-08-03T02:55:20.908Z,100.00
2023-08-03T02:57:49.588Z,100.00
2023-08-03T03:00:17.920Z,100.00
2023-08-03T03:02:45.904Z,100.00
2023-08-03T03:05:16.798Z,100.00
2023-08-03T03:07:47.776Z,100.00
2023-08-03T03:10:16.382Z,100.00
2023-08-03T03:12:45.054Z,100.00
2023-08-03T03:15:13.152Z,100.00
2023-08-03T03:17:43.750Z,100.00
2023-08-03T03:20:13.035Z,100.00
2023-08-03T03:22:43.605Z,100.00
2023-08-03T03:25:11.619Z,100.00
2023-08-03T03:27:39.323Z,100.00
2023-08-03T03:30:09.670Z,100.00
2023-08-03T03:32:37.457Z,100.00
2023-08-03T03:35:06.604Z,100.00
2023-08-03T03:37:34.970Z,100.00
2023-08-03T03:40:04.985Z,100.00
2023-08-03T03:42:39.046Z,100.00
2023-08-03T03:45:07.990Z,100.00
2023-08-03T03:47:36.259Z,100.00
2023-08-03T03:50:04.545Z,100.00
2023-08-03T03:52:34.076Z,100.00
2023-08-03T03:55:01.801Z,100.00
2023-08-03T03:57:30.834Z,100.00
2023-08-03T03:59:58.557Z,100.00
2023-08-03T04:02:26.917Z,100.00
2023-08-03T04:04:57.130Z,100.00
2023-08-03T04:07:25.038Z,100.00
2023-08-03T04:09:52.675Z,100.00
2023-08-03T04:12:20.308Z,100.00
2023-08-03T04:14:49.281Z,100.00
2023-08-03T04:17:16.960Z,100.00
2023-08-03T04:19:44.619Z,100.00
2023-08-03T04:22:15.322Z,100.00
2023-08-03T04:24:43.003Z,100.00
2023-08-03T04:27:10.863Z,100.00
2023-08-03T04:29:40.532Z,100.00
2023-08-03T04:32:10.139Z,100.00
2023-08-03T04:34:38.499Z,100.00
2023-08-03T04:37:09.490Z,100.00
2023-08-03T04:39:38.708Z,100.00
2023-08-03T04:42:07.019Z,100.00
2023-08-03T04:44:36.826Z,100.00
2023-08-03T04:47:05.334Z,100.00
2023-08-03T04:49:34.340Z,100.00
2023-08-03T04:52:06.304Z,100.00
2023-08-03T04:54:34.559Z,100.00
2023-08-03T04:57:02.221Z,100.00
2023-08-03T04:59:34.930Z,100.00
2023-08-03T05:02:02.664Z,100.00
2023-08-03T05:04:30.760Z,100.00
2023-08-03T05:07:00.551Z,100.00
2023-08-03T05:09:28.529Z,100.00
2023-08-03T05:11:56.257Z,100.00
2023-08-03T05:14:24.540Z,100.00
2023-08-03T05:16:52.201Z,100.00
2023-08-03T05:19:19.870Z,100.00
2023-08-03T05:21:47.682Z,100.00
2023-08-03T05:24:16.784Z,100.00
2023-08-03T05:26:44.620Z,100.00
2023-08-03T05:29:12.229Z,100.00
2023-08-03T05:31:39.865Z,100.00
2023-08-03T05:34:07.576Z,100.00
2023-08-03T05:36:35.234Z,100.00
2023-08-03T05:39:02.963Z,100.00
2023-08-03T05:41:32.021Z,100.00
2023-08-03T05:43:59.926Z,100.00
2023-08-03T05:46:33.365Z,100.00
2023-08-03T05:49:01.160Z,100.00
2023-08-03T05:51:30.238Z,100.00
2023-08-03T05:53:58.547Z,100.00
2023-08-03T05:56:26.419Z,100.00
2023-08-03T05:58:55.938Z,100.00
2023-08-03T06:01:25.458Z,100.00
2023-08-03T06:03:54.901Z,100.00
2023-08-03T06:06:24.184Z,100.00
2023-08-03T06:08:54.065Z,100.00
2023-08-03T06:13:54.008Z,100.00
2023-08-03T06:16:24.891Z,100.00
2023-08-03T06:18:54.647Z,100.00
2023-08-03T06:21:24.444Z,100.00
2023-08-03T06:23:54.122Z,100.00
2023-08-03T06:26:26.117Z,100.00
2023-08-03T06:28:55.885Z,100.00
2023-08-03T06:31:32.508Z,100.00
2023-08-03T06:34:00.534Z,100.00
2023-08-03T06:36:29.469Z,100.00
2023-08-03T06:38:58.223Z,100.00
2023-08-03T06:41:27.370Z,100.00
2023-08-03T06:43:55.638Z,100.00
2023-08-03T06:46:23.578Z,100.00
2023-08-03T06:48:53.624Z,100.00
2023-08-03T06:51:22.087Z,100.00
2023-08-03T06:53:50.627Z,100.00
2023-08-03T06:56:18.953Z,100.00
2023-08-03T06:58:46.913Z,100.00
2023-08-03T07:01:14.827Z,100.00
2023-08-03T07:03:42.798Z,100.00
2023-08-03T07:06:11.882Z,100.00
2023-08-03T07:08:39.873Z,100.00
2023-08-03T07:11:07.564Z,100.00
2023-08-03T07:13:35.273Z,100.00
2023-08-03T07:16:08.221Z,100.00
2023-08-03T07:18:36.011Z,100.00
2023-08-03T07:21:07.410Z,100.00
2023-08-03T07:23:36.453Z,97.54
2023-08-03T07:26:04.184Z,97.27
2023-08-03T07:28:31.878Z,97.77
2023-08-03T07:30:59.563Z,96.82
2023-08-03T07:33:27.800Z,96.89
2023-08-03T07:35:55.574Z,97.25
2023-08-03T07:38:23.393Z,94.92
2023-08-03T07:40:52.477Z,93.13
2023-08-03T07:43:20.164Z,93.79
2023-08-03T07:48:18.384Z,91.74
2023-08-03T07:50:46.058Z,91.45
2023-08-03T07:53:14.050Z,92.23
2023-08-03T07:55:41.718Z,92.66
2023-08-03T07:58:10.698Z,92.39
2023-08-03T08:00:38.480Z,89.52
2023-08-03T08:03:06.421Z,87.78
2023-08-03T08:05:34.107Z,87.22
2023-08-03T08:08:01.837Z,87.37
2023-08-03T08:10:29.553Z,87.48
2023-08-03T08:12:57.564Z,87.25
2023-08-03T08:15:26.719Z,86.69
2023-08-03T08:17:55.836Z,85.41
2023-08-03T08:20:23.530Z,84.74
2023-08-03T08:22:51.254Z,85.14
2023-08-03T08:25:19.047Z,85.81
2023-08-03T08:27:47.009Z,83.77
2023-08-03T08:30:14.730Z,83.22
2023-08-03T08:32:43.804Z,81.89
2023-08-03T08:35:11.444Z,82.83
2023-08-03T08:37:39.095Z,82.23
2023-08-03T08:40:11.494Z,81.40
2023-08-03T08:42:40.155Z,81.50
2023-08-03T08:45:10.474Z,82.44
2023-08-03T08:47:39.913Z,82.91
2023-08-03T08:55:18.223Z,80.55
2023-08-03T09:00:43.161Z,80.16
2023-08-03T09:03:10.992Z,81.16
2023-08-03T09:08:15.140Z,83.08
2023-08-03T09:10:53.050Z,82.29
2023-08-03T09:13:28.581Z,79.49
2023-08-03T09:15:56.738Z,79.87
2023-08-03T09:18:26.576Z,78.74
2023-08-03T09:26:13.576Z,79.61
2023-08-03T09:28:43.127Z,79.49
2023-08-03T09:31:28.805Z,80.27
2023-08-03T09:33:58.734Z,80.51
2023-08-03T09:39:31.153Z,77.62
2023-08-03T09:41:59.832Z,77.61
2023-08-03T09:44:29.135Z,76.84
2023-08-03T09:46:57.145Z,76.19
2023-08-03T09:49:26.117Z,76.17
2023-08-03T09:54:32.226Z,76.87
2023-08-03T09:59:38.718Z,73.91
2023-08-03T10:02:10.461Z,74.47
2023-08-03T10:04:43.333Z,73.30
2023-08-03T10:07:16.704Z,72.88
2023-08-03T10:09:48.926Z,71.05
2023-08-03T10:12:20.557Z,71.15
2023-08-03T10:14:52.089Z,71.05
2023-08-03T10:17:21.157Z,70.48
2023-08-03T10:19:50.085Z,69.41
2023-08-03T10:22:19.212Z,67.93
2023-08-03T10:25:19.342Z,67.48
2023-08-03T10:28:12.533Z,68.16
2023-08-03T10:31:12.339Z,65.94
2023-08-03T10:34:15.877Z,65.99
2023-08-03T10:36:50.701Z,65.60
2023-08-03T10:40:01.416Z,65.47
2023-08-03T10:42:33.659Z,66.13
2023-08-03T10:45:28.200Z,66.26
2023-08-03T10:48:23.533Z,67.14
2023-08-03T10:51:03.478Z,66.81
2023-08-03T10:53:31.595Z,68.27
2023-08-03T10:56:07.449Z,67.66
2023-08-03T10:58:44.875Z,67.18
2023-08-03T11:01:15.865Z,68.64
2023-08-03T11:03:43.784Z,70.77
2023-08-03T11:06:13.052Z,71.06
2023-08-03T11:08:51.052Z,72.43
2023-08-03T11:11:23.442Z,72.64
2023-08-03T11:13:52.146Z,74.94
2023-08-03T11:16:20.548Z,75.93
2023-08-03T11:18:48.761Z,78.00
2023-08-03T11:21:36.278Z,78.91
2023-08-03T11:24:54.683Z,77.31
2023-08-03T11:27:23.519Z,78.60
2023-08-03T11:29:53.038Z,79.13
2023-08-03T11:32:23.414Z,78.06
2023-08-03T11:34:51.224Z,78.41
2023-08-03T11:37:21.451Z,79.65
2023-08-03T11:39:50.375Z,78.76
2023-08-03T11:42:18.181Z,77.11
2023-08-03T11:44:55.790Z,76.47
2023-08-03T11:47:24.821Z,76.19
2023-08-03T11:53:32.901Z,75.66
2023-08-03T11:56:00.734Z,74.91
2023-08-03T11:58:28.090Z,76.50
2023-08-03T12:01:00.242Z,76.02
2023-08-03T12:03:33.018Z,73.13
2023-08-03T12:06:09.101Z,73.30
2023-08-03T12:08:46.583Z,74.72
2023-08-03T12:11:18.322Z,73.28
2023-08-03T12:13:46.908Z,73.56
2023-08-03T12:16:16.505Z,74.22
2023-08-03T12:18:44.203Z,74.23
2023-08-03T12:21:11.863Z,73.83
2023-08-03T12:23:39.746Z,73.69
2023-08-03T12:26:09.051Z,74.30
2023-08-03T12:28:36.843Z,74.33
2023-08-03T12:31:04.665Z,76.16
2023-08-03T12:33:32.507Z,77.61
2023-08-03T12:36:00.372Z,77.72
2023-08-03T12:38:28.495Z,73.99
2023-08-03T12:40:56.199Z,73.35
2023-08-03T12:43:25.308Z,74.01
2023-08-03T12:45:53.406Z,72.50
2023-08-03T12:48:21.236Z,71.29
2023-08-03T12:50:49.175Z,71.55
2023-08-03T12:53:19.578Z,72.46
2023-08-03T12:55:47.590Z,72.60
2023-08-03T12:58:15.312Z,73.22
2023-08-03T13:00:45.954Z,72.46
2023-08-03T13:03:14.148Z,72.91
2023-08-03T13:05:44.967Z,73.63
2023-08-03T13:08:13.962Z,73.14
2023-08-03T13:10:42.168Z,73.45
2023-08-03T13:13:09.925Z,75.02
2023-08-03T13:15:37.622Z,80.09
2023-08-03T13:18:06.874Z,83.70
2023-08-03T13:20:39.737Z,85.82
2023-08-03T13:23:08.140Z,87.93
2023-08-03T13:25:35.897Z,87.63
2023-08-03T13:28:06.504Z,85.08
2023-08-03T13:30:34.944Z,83.11
2023-08-03T13:33:02.754Z,83.92
2023-08-03T13:35:31.882Z,82.22
2023-08-03T13:37:59.767Z,79.39
2023-08-03T13:40:27.535Z,77.08
2023-08-03T13:42:55.217Z,75.08
2023-08-03T13:45:23.067Z,74.08
2023-08-03T13:47:50.823Z,71.85
2023-08-03T13:50:18.907Z,70.81
2023-08-03T13:52:48.266Z,70.83
2023-08-03T13:55:15.942Z,71.52
2023-08-03T13:57:44.189Z,68.49
2023-08-03T14:00:12.787Z,68.57
2023-08-03T14:05:11.801Z,67.74
2023-08-03T14:22:47.450Z,63.53
2023-08-03T14:27:52.706Z,63.86
2023-08-03T14:30:21.560Z,63.98
2023-08-03T14:32:49.554Z,62.12
2023-08-03T14:37:49.381Z,62.10
2023-08-03T14:40:18.666Z,63.15
2023-08-03T14:42:55.212Z,63.60
2023-08-03T14:45:28.636Z,62.56
2023-08-03T14:48:05.970Z,64.11
2023-08-03T14:50:37.166Z,64.96
2023-08-03T14:53:05.160Z,65.34
2023-08-03T14:55:34.699Z,65.61
2023-08-03T14:58:03.071Z,66.27
2023-08-03T15:00:30.824Z,67.37
2023-08-03T15:02:58.701Z,66.65
2023-08-03T15:05:26.669Z,66.66
2023-08-03T15:07:54.478Z,67.56
2023-08-03T15:10:22.238Z,67.99
2023-08-03T15:12:56.512Z,69.24
2023-08-03T15:15:31.010Z,72.68
2023-08-03T15:17:59.802Z,75.83
2023-08-03T15:20:35.982Z,76.14
2023-08-03T15:23:06.412Z,75.65
2023-08-03T15:25:36.487Z,78.75
2023-08-03T15:28:10.988Z,81.30
2023-08-03T15:35:44.266Z,86.40
2023-08-03T15:38:18.035Z,87.51
2023-08-03T15:40:58.553Z,88.58
2023-08-03T15:43:37.415Z,88.89
2023-08-03T15:46:15.943Z,89.01
2023-08-03T15:51:18.778Z,90.01
2023-08-03T15:53:56.868Z,89.99
2023-08-03T15:56:30.656Z,90.43
2023-08-03T15:58:59.741Z,89.96
2023-08-03T16:01:27.691Z,89.99
2023-08-03T16:03:55.395Z,90.42
2023-08-03T16:06:24.247Z,91.48
2023-08-03T16:08:51.932Z,92.20
2023-08-03T16:11:30.053Z,93.37
2023-08-03T16:14:09.001Z,95.77
2023-08-03T16:16:36.764Z,97.70
2023-08-03T16:19:04.449Z,99.26
2023-08-03T16:21:32.432Z,100.00
2023-08-03T16:24:00.243Z,100.00
2023-08-03T16:26:27.908Z,100.00
2023-08-03T16:28:55.610Z,100.00
2023-08-03T16:31:26.567Z,100.00
2023-08-03T16:34:11.493Z,100.00
2023-08-03T16:36:40.201Z,100.00
2023-08-03T16:39:08.188Z,100.00
2023-08-03T16:41:37.518Z,100.00
2023-08-03T16:44:05.580Z,100.00
2023-08-03T16:46:34.683Z,100.00
2023-08-03T16:49:02.465Z,100.00
2023-08-03T16:51:30.793Z,100.00
2023-08-03T16:53:58.577Z,100.00
2023-08-03T16:56:26.338Z,100.00
2023-08-03T16:58:54.339Z,100.00
2023-08-03T17:01:22.078Z,100.00
2023-08-03T17:03:51.750Z,100.00
2023-08-03T17:06:19.705Z,100.00
2023-08-03T17:08:47.425Z,100.00
2023-08-03T17:11:15.576Z,100.00
2023-08-03T17:13:43.665Z,100.00
2023-08-03T17:16:11.611Z,100.00
2023-08-03T17:18:40.464Z,100.00
2023-08-03T17:21:09.642Z,100.00
2023-08-03T17:23:37.393Z,100.00
2023-08-03T17:26:05.162Z,100.00
2023-08-03T17:28:32.967Z,100.00
2023-08-03T17:31:04.874Z,100.00
2023-08-03T17:33:33.088Z,100.00
2023-08-03T17:36:00.898Z,100.00
2023-08-03T17:38:29.988Z,100.00
2023-08-03T17:40:57.784Z,100.00
2023-08-03T17:43:27.111Z,100.00
2023-08-03T17:45:55.001Z,100.00
2023-08-03T17:48:24.981Z,100.00
2023-08-03T17:50:52.957Z,100.00
2023-08-03T17:53:22.535Z,100.00
2023-08-03T17:55:51.918Z,100.00
2023-08-03T17:58:20.124Z,100.00
2023-08-03T18:00:47.977Z,100.00
2023-08-03T18:03:16.085Z,100.00
2023-08-03T18:05:44.305Z,100.00
2023-08-03T18:08:12.780Z,100.00
2023-08-03T18:10:41.445Z,100.00
2023-08-03T18:13:10.645Z,100.00
2023-08-03T18:15:38.864Z,100.00
2023-08-03T18:18:06.785Z,100.00
2023-08-03T18:20:38.041Z,100.00
2023-08-03T18:23:06.109Z,100.00
2023-08-03T18:25:33.899Z,100.00
2023-08-03T18:28:01.901Z,100.00
2023-08-03T18:30:31.200Z,100.00
2023-08-03T18:32:59.137Z,100.00
2023-08-03T18:35:28.261Z,100.00
2023-08-03T18:37:57.282Z,100.00
2023-08-03T18:40:25.244Z,100.00
2023-08-03T18:42:53.046Z,100.00
2023-08-03T18:45:20.898Z,100.00
2023-08-03T18:47:50.105Z,100.00
2023-08-03T18:50:18.441Z,100.00
2023-08-03T18:52:46.708Z,100.00
2023-08-03T18:55:14.653Z,100.00
2023-08-03T18:57:42.455Z,100.00
2023-08-03T19:00:11.717Z,100.00
2023-08-03T19:02:39.535Z,100.00
2023-08-03T19:05:09.343Z,100.00
2023-08-03T19:07:37.135Z,100.00
2023-08-03T19:10:05.678Z,100.00
2023-08-03T19:12:33.451Z,100.00
2023-08-03T19:15:01.330Z,100.00
2023-08-03T19:17:29.197Z,100.00
2023-08-03T19:19:57.046Z,100.00
2023-08-03T19:22:26.153Z,100.00
2023-08-03T19:24:53.964Z,100.00
2023-08-03T19:27:21.828Z,100.00
2023-08-03T19:29:49.711Z,100.00
2023-08-03T19:32:17.526Z,100.00
2023-08-03T19:34:45.314Z,100.00
2023-08-03T19:37:13.144Z,100.00
2023-08-03T19:39:42.330Z,100.00
2023-08-03T19:42:10.539Z,100.00
2023-08-03T19:44:38.380Z,100.00
2023-08-03T19:47:07.034Z,100.00
2023-08-03T19:57:09.073Z,100.00
2023-08-03T19:59:36.939Z,100.00
2023-08-03T20:09:38.490Z,100.00
2023-08-03T20:12:08.737Z,100.00
2023-08-03T20:14:37.505Z,100.00
2023-08-03T20:19:39.716Z,100.00
2023-08-03T20:22:08.457Z,100.00
2023-08-03T20:24:38.455Z,100.00
2023-08-03T20:27:08.608Z,100.00
2023-08-03T20:32:08.616Z,100.00
2023-08-03T20:37:18.445Z,100.00
2023-08-03T20:40:00.671Z,100.00
2023-08-03T20:45:02.025Z,100.00
2023-08-03T20:50:57.720Z,100.00
2023-08-03T20:52:48.558Z,100.00
2023-08-03T20:55:16.572Z,100.00
2023-08-03T20:57:45.821Z,100.00
2023-08-03T21:00:14.617Z,100.00
2023-08-03T21:02:42.469Z,100.00
2023-08-03T21:05:10.903Z,100.00
2023-08-03T21:07:39.015Z,100.00
2023-08-03T21:12:39.065Z,100.00
2023-08-03T21:15:09.732Z,100.00
2023-08-03T21:17:37.588Z,100.00
2023-08-03T21:20:07.053Z,100.00
2023-08-03T21:22:34.985Z,100.00
2023-08-03T21:25:02.891Z,100.00
2023-08-03T21:27:31.763Z,100.00
2023-08-03T21:30:04.727Z,100.00
2023-08-03T21:32:35.680Z,100.00
2023-08-03T21:35:03.907Z,100.00
2023-08-03T21:40:00.893Z,100.00
2023-08-03T21:42:28.908Z,100.00
2023-08-03T21:44:57.169Z,100.00
2023-08-03T21:47:25.176Z,100.00
2023-08-03T21:49:55.999Z,100.00
2023-08-03T21:52:24.218Z,100.00
2023-08-03T21:54:52.178Z,100.00
2023-08-03T21:57:20.283Z,100.00
2023-08-03T21:59:48.052Z,100.00
2023-08-03T22:02:15.866Z,100.00
2023-08-03T22:04:43.896Z,100.00
2023-08-03T22:07:13.091Z,100.00
2023-08-03T22:09:40.909Z,100.00
2023-08-03T22:12:09.700Z,100.00
2023-08-03T22:14:37.547Z,100.00
2023-08-03T22:17:06.217Z,100.00
2023-08-03T22:19:34.180Z,100.00
2023-08-03T22:22:02.204Z,100.00
2023-08-03T22:24:31.346Z,100.00
2023-08-03T22:26:59.186Z,100.00
2023-08-03T22:29:27.076Z,100.00
2023-08-03T22:31:54.870Z,100.00
2023-08-03T22:34:22.691Z,100.00
2023-08-03T22:36:52.349Z,100.00
2023-08-03T22:39:20.101Z,100.00
2023-08-03T22:41:49.544Z,100.00
2023-08-03T22:44:17.464Z,100.00
2023-08-03T22:46:45.455Z,100.00
2023-08-03T22:49:13.330Z,100.00
2023-08-03T22:51:41.208Z,100.00
2023-08-03T22:54:08.990Z,100.00
2023-08-03T22:56:36.804Z,100.00
2023-08-03T22:59:05.976Z,100.00
2023-08-03T23:01:33.833Z,100.00
2023-08-03T23:04:01.683Z,100.00
2023-08-03T23:06:29.961Z,100.00
2023-08-03T23:08:58.063Z,100.00
2023-08-03T23:11:26.231Z,100.00
2023-08-03T23:13:54.072Z,100.00
2023-08-03T23:16:23.290Z,100.00
2023-08-03T23:18:53.142Z,100.00
2023-08-03T23:21:20.994Z,100.00
2023-08-03T23:23:49.168Z,100.00
2023-08-03T23:26:17.367Z,100.00
2023-08-03T23:28:46.199Z,100.00
2023-08-03T23:31:14.529Z,100.00
2023-08-03T23:33:43.681Z,100.00
2023-08-03T23:36:11.534Z,100.00
2023-08-03T23:38:39.260Z,100.00
2023-08-03T23:41:07.013Z,100.00
2023-08-03T23:43:34.772Z,100.00
2023-08-03T23:46:02.542Z,100.00
2023-08-03T23:48:30.808Z,100.00
2023-08-03T23:50:59.992Z,100.00
2023-08-03T23:53:27.747Z,100.00
2023-08-03T23:55:55.488Z,100.00
2023-08-03T23:58:23.209Z,100.00
